sensor_id;sensor_type;location;lat;lon;timestamp;P1;durP1;ratioP1;P2;durP2;ratioP2
63782;SDS011;49925;52.522;5.732;2023-04-06T00:01:07;23.40;;;9.93;;
63782;SDS011;49925;52.522;5.732;2023-04-06T00:03:35;19.88;;;9.65;;
63782;SDS011;49925;52.522;5.732;2023-04-06T00:08:30;18.38;;;9.95;;
63782;SDS011;49925;52.522;5.732;2023-04-06T00:13:24;22.40;;;10.00;;
63782;SDS011;49925;52.522;5.732;2023-04-06T00:15:51;18.35;;;9.43;;
63782;SDS011;49925;52.522;5.732;2023-04-06T00:18:18;19.88;;;9.13;;
63782;SDS011;49925;52.522;5.732;2023-04-06T00:20:45;19.90;;;9.73;;
63782;SDS011;49925;52.522;5.732;2023-04-06T00:23:13;20.35;;;9.95;;
63782;SDS011;49925;52.522;5.732;2023-04-06T00:25:40;26.40;;;10.40;;
63782;SDS011;49925;52.522;5.732;2023-04-06T00:28:07;18.40;;;9.68;;
63782;SDS011;49925;52.522;5.732;2023-04-06T00:30:34;30.58;;;10.02;;
63782;SDS011;49925;52.522;5.732;2023-04-06T00:57:32;20.33;;;10.30;;
63782;SDS011;49925;52.522;5.732;2023-04-06T01:00:00;24.55;;;10.40;;
63782;SDS011;49925;52.522;5.732;2023-04-06T01:02:27;22.13;;;9.93;;
63782;SDS011;49925;52.522;5.732;2023-04-06T01:04:54;22.92;;;10.48;;
63782;SDS011;49925;52.522;5.732;2023-04-06T01:07:21;21.98;;;10.05;;
63782;SDS011;49925;52.522;5.732;2023-04-06T01:09:48;21.23;;;10.27;;
63782;SDS011;49925;52.522;5.732;2023-04-06T01:12:18;24.27;;;10.90;;
63782;SDS011;49925;52.522;5.732;2023-04-06T01:14:45;23.27;;;11.38;;
63782;SDS011;49925;52.522;5.732;2023-04-06T01:17:12;24.48;;;10.98;;
63782;SDS011;49925;52.522;5.732;2023-04-06T01:19:40;22.10;;;10.13;;
63782;SDS011;49925;52.522;5.732;2023-04-06T01:22:07;22.38;;;10.68;;
63782;SDS011;49925;52.522;5.732;2023-04-06T01:24:34;22.75;;;10.32;;
63782;SDS011;49925;52.522;5.732;2023-04-06T01:27:01;27.85;;;11.25;;
63782;SDS011;49925;52.522;5.732;2023-04-06T01:29:28;21.77;;;10.85;;
63782;SDS011;49925;52.522;5.732;2023-04-06T01:31:56;26.50;;;12.02;;
63782;SDS011;49925;52.522;5.732;2023-04-06T01:34:23;22.77;;;11.35;;
63782;SDS011;49925;52.522;5.732;2023-04-06T01:36:50;20.02;;;10.18;;
63782;SDS011;49925;52.522;5.732;2023-04-06T01:39:18;23.70;;;10.40;;
63782;SDS011;49925;52.522;5.732;2023-04-06T01:41:47;22.85;;;10.43;;
63782;SDS011;49925;52.522;5.732;2023-04-06T01:44:17;19.77;;;10.38;;
63782;SDS011;49925;52.522;5.732;2023-04-06T01:46:48;25.88;;;11.13;;
63782;SDS011;49925;52.522;5.732;2023-04-06T01:49:15;22.50;;;10.23;;
63782;SDS011;49925;52.522;5.732;2023-04-06T01:51:42;25.77;;;10.85;;
63782;SDS011;49925;52.522;5.732;2023-04-06T01:54:09;21.25;;;11.63;;
63782;SDS011;49925;52.522;5.732;2023-04-06T01:56:37;25.23;;;11.35;;
63782;SDS011;49925;52.522;5.732;2023-04-06T01:59:04;22.95;;;11.30;;
63782;SDS011;49925;52.522;5.732;2023-04-06T02:01:31;31.02;;;11.55;;
63782;SDS011;49925;52.522;5.732;2023-04-06T02:03:59;24.02;;;11.13;;
63782;SDS011;49925;52.522;5.732;2023-04-06T02:06:26;23.92;;;11.43;;
63782;SDS011;49925;52.522;5.732;2023-04-06T02:08:53;26.63;;;11.07;;
63782;SDS011;49925;52.522;5.732;2023-04-06T02:11:21;36.83;;;13.38;;
63782;SDS011;49925;52.522;5.732;2023-04-06T02:13:48;30.98;;;11.68;;
63782;SDS011;49925;52.522;5.732;2023-04-06T02:16:15;22.42;;;10.45;;
63782;SDS011;49925;52.522;5.732;2023-04-06T02:18:42;23.98;;;11.13;;
63782;SDS011;49925;52.522;5.732;2023-04-06T02:21:09;23.25;;;11.60;;
63782;SDS011;49925;52.522;5.732;2023-04-06T02:23:37;24.63;;;11.00;;
63782;SDS011;49925;52.522;5.732;2023-04-06T02:26:04;23.05;;;11.52;;
63782;SDS011;49925;52.522;5.732;2023-04-06T02:28:31;24.13;;;10.95;;
63782;SDS011;49925;52.522;5.732;2023-04-06T02:30:58;19.70;;;10.20;;
63782;SDS011;49925;52.522;5.732;2023-04-06T02:33:26;31.17;;;11.23;;
63782;SDS011;49925;52.522;5.732;2023-04-06T02:35:53;26.23;;;11.40;;
63782;SDS011;49925;52.522;5.732;2023-04-06T02:38:20;24.27;;;11.90;;
63782;SDS011;49925;52.522;5.732;2023-04-06T02:40:48;23.37;;;11.70;;
63782;SDS011;49925;52.522;5.732;2023-04-06T02:43:15;23.00;;;12.00;;
63782;SDS011;49925;52.522;5.732;2023-04-06T02:45:43;21.15;;;11.05;;
63782;SDS011;49925;52.522;5.732;2023-04-06T02:48:10;41.38;;;12.35;;
63782;SDS011;49925;52.522;5.732;2023-04-06T03:15:09;21.83;;;11.75;;
63782;SDS011;49925;52.522;5.732;2023-04-06T03:17:37;27.30;;;11.55;;
63782;SDS011;49925;52.522;5.732;2023-04-06T03:20:05;25.80;;;12.55;;
63782;SDS011;49925;52.522;5.732;2023-04-06T03:22:32;22.70;;;11.27;;
63782;SDS011;49925;52.522;5.732;2023-04-06T03:24:59;24.35;;;12.07;;
63782;SDS011;49925;52.522;5.732;2023-04-06T03:27:29;26.38;;;12.05;;
63782;SDS011;49925;52.522;5.732;2023-04-06T03:29:56;24.02;;;12.57;;
63782;SDS011;49925;52.522;5.732;2023-04-06T03:32:23;27.13;;;12.85;;
63782;SDS011;49925;52.522;5.732;2023-04-06T03:34:50;26.27;;;12.48;;
63782;SDS011;49925;52.522;5.732;2023-04-06T03:37:18;27.58;;;12.80;;
63782;SDS011;49925;52.522;5.732;2023-04-06T03:39:45;28.05;;;12.98;;
63782;SDS011;49925;52.522;5.732;2023-04-06T03:42:12;28.70;;;12.75;;
63782;SDS011;49925;52.522;5.732;2023-04-06T03:44:39;25.17;;;12.85;;
63782;SDS011;49925;52.522;5.732;2023-04-06T05:05:15;24.48;;;12.82;;
63782;SDS011;49925;52.522;5.732;2023-04-06T05:07:42;25.23;;;12.80;;
63782;SDS011;49925;52.522;5.732;2023-04-06T05:10:09;27.52;;;13.38;;
63782;SDS011;49925;52.522;5.732;2023-04-06T05:12:37;28.05;;;13.02;;
63782;SDS011;49925;52.522;5.732;2023-04-06T05:15:04;29.15;;;14.05;;
63782;SDS011;49925;52.522;5.732;2023-04-06T05:17:32;27.75;;;13.30;;
63782;SDS011;49925;52.522;5.732;2023-04-06T05:19:59;26.10;;;13.10;;
63782;SDS011;49925;52.522;5.732;2023-04-06T05:22:27;26.40;;;12.95;;
63782;SDS011;49925;52.522;5.732;2023-04-06T05:24:54;27.70;;;12.98;;
63782;SDS011;49925;52.522;5.732;2023-04-06T05:27:21;25.33;;;12.48;;
63782;SDS011;49925;52.522;5.732;2023-04-06T05:29:48;29.08;;;13.05;;
63782;SDS011;49925;52.522;5.732;2023-04-06T05:32:15;26.23;;;13.63;;
63782;SDS011;49925;52.522;5.732;2023-04-06T05:34:43;26.80;;;13.23;;
63782;SDS011;49925;52.522;5.732;2023-04-06T05:37:10;27.75;;;13.48;;
63782;SDS011;49925;52.522;5.732;2023-04-06T05:39:37;29.23;;;14.23;;
63782;SDS011;49925;52.522;5.732;2023-04-06T05:42:04;30.75;;;13.88;;
63782;SDS011;49925;52.522;5.732;2023-04-06T05:44:32;29.25;;;13.90;;
63782;SDS011;49925;52.522;5.732;2023-04-06T05:47:00;36.70;;;13.43;;
63782;SDS011;49925;52.522;5.732;2023-04-06T05:49:27;28.48;;;13.68;;
63782;SDS011;49925;52.522;5.732;2023-04-06T05:51:54;31.95;;;13.93;;
63782;SDS011;49925;52.522;5.732;2023-04-06T05:54:21;28.20;;;12.85;;
63782;SDS011;49925;52.522;5.732;2023-04-06T05:56:48;29.95;;;14.00;;
63782;SDS011;49925;52.522;5.732;2023-04-06T05:59:16;28.40;;;14.00;;
63782;SDS011;49925;52.522;5.732;2023-04-06T06:01:43;28.58;;;13.68;;
63782;SDS011;49925;52.522;5.732;2023-04-06T06:04:10;26.48;;;13.10;;
63782;SDS011;49925;52.522;5.732;2023-04-06T06:06:37;36.95;;;13.77;;
63782;SDS011;49925;52.522;5.732;2023-04-06T06:09:04;30.58;;;15.00;;
63782;SDS011;49925;52.522;5.732;2023-04-06T06:11:32;33.22;;;15.07;;
63782;SDS011;49925;52.522;5.732;2023-04-06T06:14:00;29.80;;;14.63;;
63782;SDS011;49925;52.522;5.732;2023-04-06T06:16:27;30.77;;;14.75;;
63782;SDS011;49925;52.522;5.732;2023-04-06T06:18:54;26.27;;;14.07;;
63782;SDS011;49925;52.522;5.732;2023-04-06T06:21:21;33.65;;;15.05;;
63782;SDS011;49925;52.522;5.732;2023-04-06T06:23:48;27.73;;;14.27;;
63782;SDS011;49925;52.522;5.732;2023-04-06T06:26:16;33.40;;;14.50;;
63782;SDS011;49925;52.522;5.732;2023-04-06T06:28:43;30.48;;;13.32;;
63782;SDS011;49925;52.522;5.732;2023-04-06T06:31:11;30.83;;;14.35;;
63782;SDS011;49925;52.522;5.732;2023-04-06T06:33:38;44.08;;;15.10;;
63782;SDS011;49925;52.522;5.732;2023-04-06T06:36:05;29.73;;;14.23;;
63782;SDS011;49925;52.522;5.732;2023-04-06T06:38:33;34.67;;;14.18;;
63782;SDS011;49925;52.522;5.732;2023-04-06T06:41:00;29.20;;;14.15;;
63782;SDS011;49925;52.522;5.732;2023-04-06T06:43:27;32.85;;;14.57;;
63782;SDS011;49925;52.522;5.732;2023-04-06T06:45:54;30.50;;;14.27;;
63782;SDS011;49925;52.522;5.732;2023-04-06T06:48:21;30.52;;;14.98;;
63782;SDS011;49925;52.522;5.732;2023-04-06T06:50:48;35.35;;;15.05;;
63782;SDS011;49925;52.522;5.732;2023-04-06T06:53:16;33.65;;;15.50;;
63782;SDS011;49925;52.522;5.732;2023-04-06T06:55:43;34.65;;;15.77;;
63782;SDS011;49925;52.522;5.732;2023-04-06T06:58:15;29.52;;;13.93;;
63782;SDS011;49925;52.522;5.732;2023-04-06T07:00:44;35.45;;;14.73;;
63782;SDS011;49925;52.522;5.732;2023-04-06T07:03:12;35.95;;;15.70;;
63782;SDS011;49925;52.522;5.732;2023-04-06T07:05:44;34.10;;;15.38;;
63782;SDS011;49925;52.522;5.732;2023-04-06T07:08:16;33.03;;;15.38;;
63782;SDS011;49925;52.522;5.732;2023-04-06T07:10:43;33.67;;;16.05;;
63782;SDS011;49925;52.522;5.732;2023-04-06T07:13:11;36.72;;;15.15;;
63782;SDS011;49925;52.522;5.732;2023-04-06T07:15:38;36.22;;;15.68;;
63782;SDS011;49925;52.522;5.732;2023-04-06T07:18:05;30.15;;;15.27;;
63782;SDS011;49925;52.522;5.732;2023-04-06T07:20:33;38.28;;;15.77;;
63782;SDS011;49925;52.522;5.732;2023-04-06T07:23:00;36.13;;;16.13;;
63782;SDS011;49925;52.522;5.732;2023-04-06T07:25:29;35.75;;;16.02;;
63782;SDS011;49925;52.522;5.732;2023-04-06T07:27:56;31.20;;;16.00;;
63782;SDS011;49925;52.522;5.732;2023-04-06T07:30:23;37.03;;;16.10;;
63782;SDS011;49925;52.522;5.732;2023-04-06T07:32:57;37.85;;;16.50;;
63782;SDS011;49925;52.522;5.732;2023-04-06T07:35:26;32.17;;;15.88;;
63782;SDS011;49925;52.522;5.732;2023-04-06T07:37:53;38.75;;;16.88;;
63782;SDS011;49925;52.522;5.732;2023-04-06T07:40:21;38.17;;;16.45;;
63782;SDS011;49925;52.522;5.732;2023-04-06T07:42:48;40.72;;;16.58;;
63782;SDS011;49925;52.522;5.732;2023-04-06T07:45:16;42.78;;;16.63;;
63782;SDS011;49925;52.522;5.732;2023-04-06T07:47:43;33.55;;;16.33;;
63782;SDS011;49925;52.522;5.732;2023-04-06T07:50:12;36.90;;;17.73;;
63782;SDS011;49925;52.522;5.732;2023-04-06T07:52:39;33.83;;;15.68;;
63782;SDS011;49925;52.522;5.732;2023-04-06T07:55:06;43.30;;;15.88;;
63782;SDS011;49925;52.522;5.732;2023-04-06T07:57:33;40.10;;;16.17;;
63782;SDS011;49925;52.522;5.732;2023-04-06T08:00:01;34.67;;;16.60;;
63782;SDS011;49925;52.522;5.732;2023-04-06T08:02:31;36.70;;;15.80;;
63782;SDS011;49925;52.522;5.732;2023-04-06T08:04:58;39.78;;;18.23;;
63782;SDS011;49925;52.522;5.732;2023-04-06T08:07:26;39.00;;;17.50;;
63782;SDS011;49925;52.522;5.732;2023-04-06T08:09:53;35.35;;;16.90;;
63782;SDS011;49925;52.522;5.732;2023-04-06T08:12:21;34.55;;;16.30;;
63782;SDS011;49925;52.522;5.732;2023-04-06T08:14:48;38.78;;;17.42;;
63782;SDS011;49925;52.522;5.732;2023-04-06T08:17:16;35.40;;;16.98;;
63782;SDS011;49925;52.522;5.732;2023-04-06T08:19:43;39.45;;;16.85;;
63782;SDS011;49925;52.522;5.732;2023-04-06T08:22:11;45.08;;;16.17;;
63782;SDS011;49925;52.522;5.732;2023-04-06T08:24:38;49.97;;;16.58;;
63782;SDS011;49925;52.522;5.732;2023-04-06T08:27:05;37.22;;;17.38;;
63782;SDS011;49925;52.522;5.732;2023-04-06T08:29:32;36.58;;;16.80;;
63782;SDS011;49925;52.522;5.732;2023-04-06T08:31:59;34.55;;;17.35;;
63782;SDS011;49925;52.522;5.732;2023-04-06T08:34:29;37.00;;;16.70;;
63782;SDS011;49925;52.522;5.732;2023-04-06T08:36:58;33.15;;;16.08;;
63782;SDS011;49925;52.522;5.732;2023-04-06T08:39:26;42.00;;;17.38;;
63782;SDS011;49925;52.522;5.732;2023-04-06T08:41:54;44.15;;;18.55;;
63782;SDS011;49925;52.522;5.732;2023-04-06T08:44:26;40.95;;;17.67;;
63782;SDS011;49925;52.522;5.732;2023-04-06T08:46:53;42.78;;;17.58;;
63782;SDS011;49925;52.522;5.732;2023-04-06T08:49:21;40.25;;;17.60;;
63782;SDS011;49925;52.522;5.732;2023-04-06T08:51:48;39.53;;;17.83;;
63782;SDS011;49925;52.522;5.732;2023-04-06T08:54:16;36.20;;;17.23;;
63782;SDS011;49925;52.522;5.732;2023-04-06T08:56:43;37.35;;;17.17;;
63782;SDS011;49925;52.522;5.732;2023-04-06T08:59:11;38.85;;;17.65;;
63782;SDS011;49925;52.522;5.732;2023-04-06T09:01:39;47.00;;;17.35;;
63782;SDS011;49925;52.522;5.732;2023-04-06T09:04:10;44.25;;;17.20;;
63782;SDS011;49925;52.522;5.732;2023-04-06T09:06:39;36.90;;;16.00;;
63782;SDS011;49925;52.522;5.732;2023-04-06T09:09:07;46.85;;;17.30;;
63782;SDS011;49925;52.522;5.732;2023-04-06T09:11:44;38.17;;;16.70;;
63782;SDS011;49925;52.522;5.732;2023-04-06T09:14:14;42.47;;;17.58;;
63782;SDS011;49925;52.522;5.732;2023-04-06T09:16:45;44.67;;;18.45;;
63782;SDS011;49925;52.522;5.732;2023-04-06T09:19:12;55.75;;;18.55;;
63782;SDS011;49925;52.522;5.732;2023-04-06T09:21:39;48.33;;;18.20;;
63782;SDS011;49925;52.522;5.732;2023-04-06T09:24:08;43.85;;;17.98;;
63782;SDS011;49925;52.522;5.732;2023-04-06T09:26:46;43.15;;;18.20;;
63782;SDS011;49925;52.522;5.732;2023-04-06T09:29:23;43.25;;;19.63;;
63782;SDS011;49925;52.522;5.732;2023-04-06T09:32:01;44.13;;;19.38;;
63782;SDS011;49925;52.522;5.732;2023-04-06T09:34:33;55.78;;;21.38;;
63782;SDS011;49925;52.522;5.732;2023-04-06T09:37:00;62.75;;;19.77;;
63782;SDS011;49925;52.522;5.732;2023-04-06T09:39:45;50.38;;;20.42;;
63782;SDS011;49925;52.522;5.732;2023-04-06T09:42:25;54.40;;;20.40;;
63782;SDS011;49925;52.522;5.732;2023-04-06T09:44:52;45.63;;;19.73;;
63782;SDS011;49925;52.522;5.732;2023-04-06T09:47:20;50.47;;;20.88;;
63782;SDS011;49925;52.522;5.732;2023-04-06T09:49:56;54.13;;;21.95;;
63782;SDS011;49925;52.522;5.732;2023-04-06T09:53:08;47.38;;;21.25;;
63782;SDS011;49925;52.522;5.732;2023-04-06T09:55:23;50.30;;;21.25;;
63782;SDS011;49925;52.522;5.732;2023-04-06T09:57:57;54.85;;;22.30;;
63782;SDS011;49925;52.522;5.732;2023-04-06T10:00:28;50.40;;;20.92;;
63782;SDS011;49925;52.522;5.732;2023-04-06T10:05:57;63.00;;;22.73;;
63782;SDS011;49925;52.522;5.732;2023-04-06T10:08:28;51.30;;;20.48;;
63782;SDS011;49925;52.522;5.732;2023-04-06T10:10:58;55.75;;;21.35;;
63782;SDS011;49925;52.522;5.732;2023-04-06T10:13:27;54.38;;;21.63;;
63782;SDS011;49925;52.522;5.732;2023-04-06T10:15:54;51.92;;;22.30;;
63782;SDS011;49925;52.522;5.732;2023-04-06T10:18:21;58.72;;;22.00;;
63782;SDS011;49925;52.522;5.732;2023-04-06T10:20:51;58.72;;;21.90;;
63782;SDS011;49925;52.522;5.732;2023-04-06T10:23:33;55.83;;;22.17;;
63782;SDS011;49925;52.522;5.732;2023-04-06T10:26:03;77.03;;;22.60;;
63782;SDS011;49925;52.522;5.732;2023-04-06T10:28:31;53.13;;;21.80;;
63782;SDS011;49925;52.522;5.732;2023-04-06T10:31:04;54.65;;;21.85;;
63782;SDS011;49925;52.522;5.732;2023-04-06T10:33:32;63.08;;;22.88;;
63782;SDS011;49925;52.522;5.732;2023-04-06T10:36:13;50.75;;;20.55;;
63782;SDS011;49925;52.522;5.732;2023-04-06T10:38:41;47.55;;;21.42;;
63782;SDS011;49925;52.522;5.732;2023-04-06T10:41:09;50.15;;;21.45;;
63782;SDS011;49925;52.522;5.732;2023-04-06T10:43:38;58.03;;;21.08;;
63782;SDS011;49925;52.522;5.732;2023-04-06T10:46:08;49.08;;;20.13;;
63782;SDS011;49925;52.522;5.732;2023-04-06T10:51:12;46.92;;;18.98;;
63782;SDS011;49925;52.522;5.732;2023-04-06T10:53:41;46.95;;;19.73;;
63782;SDS011;49925;52.522;5.732;2023-04-06T10:56:16;49.00;;;20.15;;
63782;SDS011;49925;52.522;5.732;2023-04-06T10:58:48;41.97;;;18.35;;
63782;SDS011;49925;52.522;5.732;2023-04-06T11:01:19;37.70;;;18.80;;
63782;SDS011;49925;52.522;5.732;2023-04-06T11:03:49;44.67;;;18.70;;
63782;SDS011;49925;52.522;5.732;2023-04-06T11:06:24;48.97;;;19.45;;
63782;SDS011;49925;52.522;5.732;2023-04-06T11:08:53;47.72;;;18.38;;
63782;SDS011;49925;52.522;5.732;2023-04-06T11:11:22;44.25;;;19.05;;
63782;SDS011;49925;52.522;5.732;2023-04-06T11:13:54;42.15;;;18.42;;
63782;SDS011;49925;52.522;5.732;2023-04-06T11:16:27;48.00;;;18.70;;
63782;SDS011;49925;52.522;5.732;2023-04-06T11:18:58;48.35;;;18.10;;
63782;SDS011;49925;52.522;5.732;2023-04-06T11:21:34;37.13;;;18.02;;
63782;SDS011;49925;52.522;5.732;2023-04-06T11:26:49;42.05;;;19.17;;
63782;SDS011;49925;52.522;5.732;2023-04-06T11:29:21;35.25;;;17.75;;
63782;SDS011;49925;52.522;5.732;2023-04-06T11:34:29;34.40;;;15.68;;
63782;SDS011;49925;52.522;5.732;2023-04-06T11:36:58;42.47;;;17.23;;
63782;SDS011;49925;52.522;5.732;2023-04-06T11:39:28;37.38;;;16.75;;
63782;SDS011;49925;52.522;5.732;2023-04-06T11:41:59;38.13;;;16.90;;
63782;SDS011;49925;52.522;5.732;2023-04-06T11:44:42;37.60;;;14.40;;
63782;SDS011;49925;52.522;5.732;2023-04-06T11:47:12;34.78;;;15.63;;
63782;SDS011;49925;52.522;5.732;2023-04-06T11:49:40;33.45;;;15.68;;
63782;SDS011;49925;52.522;5.732;2023-04-06T11:52:19;36.92;;;16.52;;
63782;SDS011;49925;52.522;5.732;2023-04-06T11:54:48;37.47;;;17.48;;
63782;SDS011;49925;52.522;5.732;2023-04-06T11:57:18;32.20;;;17.20;;
63782;SDS011;49925;52.522;5.732;2023-04-06T11:59:47;39.15;;;16.83;;
63782;SDS011;49925;52.522;5.732;2023-04-06T12:02:14;34.33;;;15.95;;
63782;SDS011;49925;52.522;5.732;2023-04-06T12:04:41;38.17;;;17.02;;
63782;SDS011;49925;52.522;5.732;2023-04-06T12:07:08;35.20;;;15.70;;
63782;SDS011;49925;52.522;5.732;2023-04-06T12:09:35;26.38;;;14.50;;
63782;SDS011;49925;52.522;5.732;2023-04-06T12:12:03;35.72;;;16.90;;
63782;SDS011;49925;52.522;5.732;2023-04-06T12:14:30;40.33;;;17.33;;
63782;SDS011;49925;52.522;5.732;2023-04-06T12:16:57;33.38;;;16.27;;
63782;SDS011;49925;52.522;5.732;2023-04-06T12:19:25;34.30;;;15.23;;
63782;SDS011;49925;52.522;5.732;2023-04-06T12:21:54;36.60;;;16.48;;
63782;SDS011;49925;52.522;5.732;2023-04-06T12:24:21;39.53;;;16.98;;
63782;SDS011;49925;52.522;5.732;2023-04-06T12:26:48;34.65;;;16.30;;
63782;SDS011;49925;52.522;5.732;2023-04-06T12:29:24;33.30;;;15.55;;
63782;SDS011;49925;52.522;5.732;2023-04-06T12:31:52;28.65;;;15.93;;
63782;SDS011;49925;52.522;5.732;2023-04-06T12:34:19;37.95;;;17.65;;
63782;SDS011;49925;52.522;5.732;2023-04-06T12:36:46;24.70;;;12.45;;
63782;SDS011;49925;52.522;5.732;2023-04-06T12:39:14;20.63;;;9.77;;
63782;SDS011;49925;52.522;5.732;2023-04-06T12:41:45;20.15;;;9.88;;
63782;SDS011;49925;52.522;5.732;2023-04-06T12:44:12;29.27;;;12.38;;
63782;SDS011;49925;52.522;5.732;2023-04-06T12:46:39;30.63;;;13.60;;
63782;SDS011;49925;52.522;5.732;2023-04-06T12:49:07;33.50;;;13.55;;
63782;SDS011;49925;52.522;5.732;2023-04-06T12:51:34;35.22;;;15.00;;
63782;SDS011;49925;52.522;5.732;2023-04-06T12:54:01;26.80;;;12.88;;
63782;SDS011;49925;52.522;5.732;2023-04-06T12:56:28;23.73;;;11.88;;
63782;SDS011;49925;52.522;5.732;2023-04-06T12:58:56;26.02;;;12.00;;
63782;SDS011;49925;52.522;5.732;2023-04-06T13:01:23;20.02;;;10.73;;
63782;SDS011;49925;52.522;5.732;2023-04-06T13:03:51;24.08;;;11.70;;
63782;SDS011;49925;52.522;5.732;2023-04-06T13:06:19;25.13;;;12.93;;
63782;SDS011;49925;52.522;5.732;2023-04-06T13:08:47;28.08;;;12.95;;
63782;SDS011;49925;52.522;5.732;2023-04-06T13:11:16;23.40;;;12.00;;
63782;SDS011;49925;52.522;5.732;2023-04-06T13:13:43;28.17;;;13.15;;
63782;SDS011;49925;52.522;5.732;2023-04-06T13:16:10;25.42;;;13.20;;
63782;SDS011;49925;52.522;5.732;2023-04-06T13:18:38;24.42;;;13.48;;
63782;SDS011;49925;52.522;5.732;2023-04-06T13:21:06;34.53;;;15.32;;
63782;SDS011;49925;52.522;5.732;2023-04-06T13:23:33;31.02;;;15.93;;
63782;SDS011;49925;52.522;5.732;2023-04-06T13:26:05;27.60;;;13.75;;
63782;SDS011;49925;52.522;5.732;2023-04-06T13:28:33;28.33;;;14.25;;
63782;SDS011;49925;52.522;5.732;2023-04-06T13:31:03;29.13;;;12.77;;
63782;SDS011;49925;52.522;5.732;2023-04-06T13:33:30;27.50;;;12.63;;
63782;SDS011;49925;52.522;5.732;2023-04-06T13:35:58;21.73;;;10.60;;
63782;SDS011;49925;52.522;5.732;2023-04-06T13:38:26;20.42;;;10.65;;
63782;SDS011;49925;52.522;5.732;2023-04-06T13:40:53;25.35;;;11.07;;
63782;SDS011;49925;52.522;5.732;2023-04-06T13:43:21;27.42;;;10.85;;
63782;SDS011;49925;52.522;5.732;2023-04-06T13:45:49;20.23;;;8.95;;
63782;SDS011;49925;52.522;5.732;2023-04-06T13:48:17;20.13;;;9.65;;
63782;SDS011;49925;52.522;5.732;2023-04-06T13:50:45;17.05;;;8.43;;
63782;SDS011;49925;52.522;5.732;2023-04-06T13:53:12;20.05;;;9.48;;
63782;SDS011;49925;52.522;5.732;2023-04-06T13:55:39;19.85;;;9.15;;
63782;SDS011;49925;52.522;5.732;2023-04-06T13:58:07;22.08;;;10.50;;
63782;SDS011;49925;52.522;5.732;2023-04-06T14:00:34;20.48;;;9.25;;
63782;SDS011;49925;52.522;5.732;2023-04-06T14:03:02;17.98;;;9.40;;
63782;SDS011;49925;52.522;5.732;2023-04-06T14:05:32;16.17;;;8.23;;
63782;SDS011;49925;52.522;5.732;2023-04-06T14:07:59;17.05;;;8.75;;
63782;SDS011;49925;52.522;5.732;2023-04-06T14:10:28;19.73;;;9.82;;
63782;SDS011;49925;52.522;5.732;2023-04-06T14:12:55;16.58;;;8.90;;
63782;SDS011;49925;52.522;5.732;2023-04-06T14:15:24;17.05;;;8.68;;
63782;SDS011;49925;52.522;5.732;2023-04-06T14:17:51;20.95;;;8.95;;
63782;SDS011;49925;52.522;5.732;2023-04-06T14:20:19;17.13;;;8.85;;
63782;SDS011;49925;52.522;5.732;2023-04-06T14:22:46;17.83;;;8.43;;
63782;SDS011;49925;52.522;5.732;2023-04-06T14:25:15;17.48;;;8.43;;
63782;SDS011;49925;52.522;5.732;2023-04-06T14:27:43;17.48;;;8.02;;
63782;SDS011;49925;52.522;5.732;2023-04-06T14:30:10;15.70;;;8.77;;
63782;SDS011;49925;52.522;5.732;2023-04-06T14:32:38;17.13;;;9.30;;
63782;SDS011;49925;52.522;5.732;2023-04-06T19:18:52;22.20;;;13.27;;
63782;SDS011;49925;52.522;5.732;2023-04-06T19:21:21;25.45;;;12.73;;
63782;SDS011;49925;52.522;5.732;2023-04-06T19:23:50;23.98;;;12.48;;
63782;SDS011;49925;52.522;5.732;2023-04-06T19:26:21;21.10;;;12.18;;
63782;SDS011;49925;52.522;5.732;2023-04-06T19:28:49;25.42;;;12.52;;
63782;SDS011;49925;52.522;5.732;2023-04-06T19:31:17;24.58;;;12.85;;
63782;SDS011;49925;52.522;5.732;2023-04-06T19:33:45;22.63;;;13.00;;
63782;SDS011;49925;52.522;5.732;2023-04-06T19:36:12;24.95;;;12.85;;
63782;SDS011;49925;52.522;5.732;2023-04-06T19:38:40;24.73;;;12.05;;
63782;SDS011;49925;52.522;5.732;2023-04-06T19:41:08;23.40;;;12.65;;
63782;SDS011;49925;52.522;5.732;2023-04-06T19:43:35;21.38;;;12.23;;
63782;SDS011;49925;52.522;5.732;2023-04-06T19:46:03;19.60;;;12.25;;
63782;SDS011;49925;52.522;5.732;2023-04-06T19:48:30;22.63;;;12.73;;
63782;SDS011;49925;52.522;5.732;2023-04-06T19:51:00;24.83;;;12.38;;
63782;SDS011;49925;52.522;5.732;2023-04-06T19:53:28;19.98;;;11.55;;
63782;SDS011;49925;52.522;5.732;2023-04-06T19:55:55;21.10;;;12.48;;
63782;SDS011;49925;52.522;5.732;2023-04-06T19:58:22;20.95;;;12.18;;
63782;SDS011;49925;52.522;5.732;2023-04-06T20:00:49;20.10;;;11.65;;
63782;SDS011;49925;52.522;5.732;2023-04-06T20:03:16;22.58;;;11.82;;
63782;SDS011;49925;52.522;5.732;2023-04-06T20:05:44;20.13;;;11.98;;
63782;SDS011;49925;52.522;5.732;2023-04-06T20:08:12;24.00;;;12.52;;
63782;SDS011;49925;52.522;5.732;2023-04-06T20:10:39;18.98;;;11.25;;
63782;SDS011;49925;52.522;5.732;2023-04-06T20:13:07;23.75;;;12.52;;
63782;SDS011;49925;52.522;5.732;2023-04-06T20:15:34;23.80;;;12.05;;
63782;SDS011;49925;52.522;5.732;2023-04-06T20:18:01;19.13;;;12.10;;
63782;SDS011;49925;52.522;5.732;2023-04-06T20:20:29;19.85;;;11.98;;
63782;SDS011;49925;52.522;5.732;2023-04-06T20:22:56;21.58;;;11.90;;
